Time;durP1;ratioP1;P1;durP2;ratioP2;P2;SDS_P1;SDS_P2;PMS_P1;PMS_P2;Temp;Humidity;BMP_temperature;BMP_pressure;BME280_temperature;BME280_humidity;BME280_pressure;Samples;Min_cycle;Max_cycle;Signal;HPM_P1;HPM_P2
2023/06/23 00:00:00;;;;;;;4.25;1.73;;;23.90;64.90;;;;;;4976176;28;20133;-58
2023/06/23 00:02:27;;;;;;;2.15;1.35;;;23.90;64.90;;;;;;4975822;28;20038;-58
2023/06/23 00:04:53;;;;;;;2.10;1.30;;;23.90;64.90;;;;;;4975674;28;20096;-57
2023/06/23 00:07:19;;;;;;;3.25;1.50;;;23.90;64.90;;;;;;4976448;28;20130;-58
2023/06/23 00:09:44;;;;;;;2.65;1.30;;;23.90;64.90;;;;;;4975792;28;20066;-57
2023/06/23 00:12:10;;;;;;;4.13;1.40;;;23.90;64.90;;;;;;4992032;28;20075;-58
2023/06/23 00:14:36;;;;;;;2.22;1.30;;;23.90;64.90;;;;;;4995708;28;20142;-57
2023/06/23 00:17:02;;;;;;;2.38;1.30;;;23.90;64.90;;;;;;4994612;28;20090;-57
2023/06/23 00:19:31;;;;;;;2.30;1.60;;;23.90;64.90;;;;;;4995180;28;20043;-58
2023/06/23 00:21:58;;;;;;;2.83;1.60;;;23.80;64.90;;;;;;4995061;28;20053;-58
2023/06/23 00:24:23;;;;;;;2.20;1.33;;;23.80;64.90;;;;;;4994719;28;20148;-58
2023/06/23 00:26:50;;;;;;;2.33;1.30;;;23.80;64.90;;;;;;4994574;28;20093;-59
2023/06/23 00:29:16;;;;;;;2.85;1.45;;;23.80;64.90;;;;;;4995433;28;20038;-58
2023/06/23 00:31:41;;;;;;;1.92;1.10;;;23.80;64.80;;;;;;4975415;28;20050;-58
2023/06/23 00:34:07;;;;;;;2.92;1.50;;;23.80;64.80;;;;;;4973790;28;20054;-57
2023/06/23 00:36:39;;;;;;;2.20;1.33;;;23.80;64.80;;;;;;4975760;28;20062;-58
2023/06/23 00:39:05;;;;;;;2.38;1.25;;;23.90;64.90;;;;;;4975317;28;20077;-58
2023/06/23 00:41:30;;;;;;;2.38;1.40;;;23.80;64.80;;;;;;4975882;28;20129;-58
2023/06/23 00:43:59;;;;;;;2.90;1.75;;;23.80;64.80;;;;;;4974044;28;20487;-58
2023/06/23 00:46:24;;;;;;;2.08;1.20;;;23.80;64.90;;;;;;4975549;28;20505;-58
2023/06/23 00:48:50;;;;;;;2.60;1.50;;;23.80;64.80;;;;;;4957994;28;20043;-58
2023/06/23 00:51:16;;;;;;;2.42;1.45;;;23.80;64.80;;;;;;4969071;28;20406;-57
2023/06/23 00:53:48;;;;;;;2.53;1.55;;;23.80;64.90;;;;;;4990674;28;20050;-58
2023/06/23 00:56:14;;;;;;;3.28;1.30;;;23.80;64.80;;;;;;4975739;28;20047;-58
2023/06/23 00:58:41;;;;;;;2.80;1.27;;;23.80;64.90;;;;;;4974885;28;20039;-58
2023/06/23 01:01:08;;;;;;;2.63;1.48;;;23.80;64.90;;;;;;4974152;28;20053;-57
2023/06/23 01:03:35;;;;;;;2.72;1.65;;;23.80;64.90;;;;;;4975343;28;20047;-58
2023/06/23 01:06:10;;;;;;;2.03;1.30;;;23.80;64.80;;;;;;4974018;28;20473;-58
2023/06/23 01:09:01;;;;;;;2.95;1.38;;;23.80;64.80;;;;;;4975328;28;20050;-59
2023/06/23 01:11:41;;;;;;;2.25;1.30;;;23.80;64.70;;;;;;4974189;28;20110;-58
2023/06/23 01:14:20;;;;;;;2.22;1.30;;;23.80;64.80;;;;;;4959948;28;20428;-58
2023/06/23 01:16:53;;;;;;;2.75;1.38;;;23.80;64.80;;;;;;4993070;28;20104;-58
2023/06/23 01:19:43;;;;;;;2.53;1.42;;;23.70;64.80;;;;;;4973093;28;20034;-58
2023/06/23 01:22:32;;;;;;;2.38;1.42;;;23.80;64.80;;;;;;4974505;28;20047;-58
2023/06/23 01:25:36;;;;;;;2.38;1.23;;;23.70;64.70;;;;;;4974506;28;20050;-58
2023/06/23 01:28:29;;;;;;;2.33;1.35;;;23.70;64.70;;;;;;4970726;28;20082;-58
2023/06/23 01:30:55;;;;;;;3.20;1.70;;;23.70;64.70;;;;;;4974293;28;20046;-58
2023/06/23 01:33:29;;;;;;;2.75;1.60;;;23.70;64.70;;;;;;4956976;28;20058;-58
2023/06/23 01:36:03;;;;;;;2.90;1.60;;;23.70;64.80;;;;;;4973138;28;20114;-58
2023/06/23 01:38:32;;;;;;;3.10;1.27;;;23.70;64.80;;;;;;4974789;28;20054;-58
2023/06/23 01:40:58;;;;;;;2.10;1.33;;;23.70;64.70;;;;;;4962414;28;20432;-59
2023/06/23 01:43:29;;;;;;;2.58;1.30;;;23.70;64.70;;;;;;4957205;28;20121;-59
2023/06/23 01:46:06;;;;;;;2.05;1.30;;;23.70;64.70;;;;;;4974540;28;20069;-58
2023/06/23 01:48:33;;;;;;;3.40;1.35;;;23.70;64.70;;;;;;4984679;28;20093;-59
2023/06/23 01:50:58;;;;;;;2.58;1.27;;;23.70;64.70;;;;;;4977306;28;20098;-59
2023/06/23 01:53:25;;;;;;;2.53;1.30;;;23.70;64.70;;;;;;4974513;28;20047;-59
2023/06/23 01:55:51;;;;;;;1.50;1.15;;;23.70;64.70;;;;;;4971780;28;20457;-59
2023/06/23 01:58:17;;;;;;;2.72;1.50;;;23.70;64.70;;;;;;4973213;28;20084;-59
2023/06/23 02:00:42;;;;;;;3.92;1.70;;;23.70;64.70;;;;;;4978205;28;20053;-59
2023/06/23 02:03:08;;;;;;;2.60;1.50;;;23.70;64.70;;;;;;4991315;28;20457;-59
2023/06/23 02:05:33;;;;;;;3.30;1.50;;;23.70;64.80;;;;;;4986829;28;20108;-60
2023/06/23 02:07:59;;;;;;;3.78;1.60;;;23.70;64.70;;;;;;4972517;28;20537;-59
2023/06/23 02:10:27;;;;;;;3.00;1.30;;;23.70;64.70;;;;;;4973530;28;20383;-58
2023/06/23 02:12:53;;;;;;;2.63;1.60;;;23.70;64.70;;;;;;4972671;28;20069;-59
2023/06/23 02:15:18;;;;;;;2.30;1.40;;;23.70;64.70;;;;;;4972322;28;20486;-59
2023/06/23 02:17:44;;;;;;;3.10;1.30;;;23.70;64.70;;;;;;4973011;28;20085;-58
2023/06/23 02:20:15;;;;;;;2.47;1.30;;;23.70;64.80;;;;;;4972134;28;20047;-58
2023/06/23 02:22:46;;;;;;;2.20;1.27;;;23.70;64.70;;;;;;4972205;28;20053;-58
2023/06/23 02:25:11;;;;;;;2.45;1.50;;;23.70;64.70;;;;;;4973786;28;20057;-59
2023/06/23 02:27:37;;;;;;;1.90;1.27;;;23.70;64.70;;;;;;4973990;28;20149;-59
2023/06/23 02:30:04;;;;;;;2.50;1.30;;;23.70;64.80;;;;;;4971456;28;20050;-59
2023/06/23 02:32:29;;;;;;;2.63;1.48;;;23.70;64.70;;;;;;4972793;28;20051;-59
2023/06/23 02:34:55;;;;;;;2.65;1.40;;;23.60;64.70;;;;;;4973571;28;20200;-59
2023/06/23 02:37:24;;;;;;;2.95;1.65;;;23.70;64.80;;;;;;4972906;28;20054;-59
2023/06/23 02:39:58;;;;;;;3.20;1.55;;;23.60;64.70;;;;;;4972315;28;20046;-59
2023/06/23 02:42:28;;;;;;;2.28;1.52;;;23.60;64.70;;;;;;4972706;28;20137;-59
2023/06/23 02:44:57;;;;;;;2.38;1.40;;;23.60;64.70;;;;;;4972430;28;20121;-59
2023/06/23 02:47:22;;;;;;;2.60;1.52;;;23.60;64.70;;;;;;4970626;28;20043;-58
2023/06/23 02:49:49;;;;;;;2.63;1.25;;;23.60;64.70;;;;;;4988087;28;20065;-59
2023/06/23 02:52:14;;;;;;;1.70;1.27;;;23.60;64.70;;;;;;4973181;28;20039;-59
2023/06/23 02:54:42;;;;;;;2.30;1.25;;;23.60;64.70;;;;;;4956460;28;20371;-59
2023/06/23 02:57:09;;;;;;;;;;;23.60;64.70;;;;;;4973793;28;20047;-59
2023/06/23 02:59:35;;;;;;;1.88;1.20;;;23.60;64.60;;;;;;4971800;28;19922;-59
2023/06/23 03:02:01;;;;;;;1.90;1.20;;;23.60;64.70;;;;;;4966069;28;20080;-59
2023/06/23 03:04:27;;;;;;;3.10;1.40;;;23.60;64.70;;;;;;4987787;28;20050;-59
2023/06/23 03:06:53;;;;;;;2.70;1.48;;;23.60;64.70;;;;;;4973281;28;20097;-59
2023/06/23 03:09:19;;;;;;;2.00;1.35;;;23.60;65.30;;;;;;4975561;28;20051;-59
2023/06/23 03:11:44;;;;;;;3.92;1.65;;;23.60;64.70;;;;;;4976682;28;20042;-59
2023/06/23 03:14:13;;;;;;;2.63;1.38;;;23.60;64.70;;;;;;4977101;28;20070;-59
2023/06/23 03:17:08;;;;;;;1.92;1.20;;;23.60;64.70;;;;;;4975891;28;20049;-59
2023/06/23 03:19:41;;;;;;;2.50;1.52;;;23.60;64.70;;;;;;4966685;28;20077;-59
2023/06/23 03:22:17;;;;;;;2.22;1.30;;;23.60;64.70;;;;;;4976895;28;20408;-59
2023/06/23 03:24:48;;;;;;;3.13;1.60;;;23.60;64.80;;;;;;4977085;28;20414;-59
2023/06/23 03:27:14;;;;;;;2.55;1.42;;;23.50;64.70;;;;;;4976432;28;20046;-59
2023/06/23 03:29:43;;;;;;;2.42;1.40;;;23.60;64.70;;;;;;4960020;28;20049;-59
2023/06/23 03:32:11;;;;;;;2.55;1.60;;;23.60;64.70;;;;;;4969145;28;20061;-59
2023/06/23 03:34:41;;;;;;;3.03;1.38;;;23.50;64.70;;;;;;4976088;28;20407;-59
2023/06/23 03:37:08;;;;;;;2.90;1.45;;;23.50;64.70;;;;;;4982007;28;20165;-59
2023/06/23 03:39:36;;;;;;;3.67;1.60;;;23.50;64.70;;;;;;4974874;28;20446;-59
2023/06/23 03:42:03;;;;;;;2.85;1.40;;;23.60;64.70;;;;;;4967289;28;20402;-59
2023/06/23 03:44:33;;;;;;;2.70;1.40;;;23.50;64.70;;;;;;4977025;28;20043;-59
2023/06/23 03:47:09;;;;;;;3.05;1.50;;;23.50;64.70;;;;;;4983220;28;20046;-59
2023/06/23 03:49:42;;;;;;;2.85;1.42;;;23.50;64.70;;;;;;4975555;28;20479;-59
2023/06/23 03:52:07;;;;;;;2.65;1.50;;;23.50;64.70;;;;;;4975171;28;20492;-59
2023/06/23 03:54:33;;;;;;;2.53;1.42;;;23.50;64.70;;;;;;4976033;28;20126;-59
2023/06/23 03:57:00;;;;;;;2.42;1.42;;;23.50;64.70;;;;;;4976142;28;20105;-59
2023/06/23 03:59:26;;;;;;;2.50;1.50;;;23.50;64.70;;;;;;4975293;28;20454;-58
2023/06/23 04:01:51;;;;;;;2.55;1.35;;;23.50;64.70;;;;;;4966583;28;20478;-59
2023/06/23 04:04:17;;;;;;;2.60;1.60;;;23.50;65.40;;;;;;4991461;28;20465;-59
2023/06/23 04:06:43;;;;;;;2.92;1.60;;;23.50;64.70;;;;;;4978009;28;20042;-59
2023/06/23 04:09:08;;;;;;;2.10;1.23;;;23.50;64.70;;;;;;4976712;28;20042;-59
2023/06/23 04:11:34;;;;;;;2.15;1.38;;;23.50;64.70;;;;;;4977591;28;20153;-59
2023/06/23 04:14:00;;;;;;;2.15;1.38;;;23.50;64.70;;;;;;4977819;28;20494;-59
2023/06/23 04:16:25;;;;;;;2.72;1.38;;;23.50;64.70;;;;;;4977213;28;20049;-59
2023/06/23 04:18:51;;;;;;;2.25;1.42;;;23.50;64.70;;;;;;4993144;28;20155;-59
2023/06/23 04:21:17;;;;;;;2.35;1.40;;;23.50;64.70;;;;;;4993653;28;20470;-59
2023/06/23 04:23:42;;;;;;;2.35;1.40;;;23.50;64.70;;;;;;4993465;28;20045;-59
2023/06/23 04:26:09;;;;;;;1.90;1.35;;;23.50;64.70;;;;;;4993851;28;20046;-59
2023/06/23 04:28:34;;;;;;;2.30;1.50;;;23.50;64.70;;;;;;4994117;28;20057;-58
2023/06/23 04:31:01;;;;;;;2.42;1.30;;;23.50;64.70;;;;;;4992923;28;20042;-59
2023/06/23 04:33:26;;;;;;;3.75;1.70;;;23.50;64.70;;;;;;4995534;28;20050;-59
2023/06/23 04:35:53;;;;;;;2.42;1.38;;;23.50;64.70;;;;;;4993857;28;20130;-58
2023/06/23 04:38:21;;;;;;;2.95;1.63;;;23.50;64.80;;;;;;4977936;28;20057;-59
2023/06/23 04:40:49;;;;;;;2.72;1.40;;;23.50;64.70;;;;;;4977927;28;20034;-59
2023/06/23 04:43:16;;;;;;;;;;;23.50;64.70;;;;;;4993630;28;20056;-59
2023/06/23 04:45:48;;;;;;;2.92;1.50;;;23.40;64.60;;;;;;4994056;28;19928;-58
2023/06/23 04:48:13;;;;;;;2.38;1.40;;;23.40;64.70;;;;;;4993768;28;20042;-59
2023/06/23 04:50:39;;;;;;;3.63;1.60;;;23.50;64.80;;;;;;4976921;28;20053;-59
2023/06/23 04:53:07;;;;;;;3.42;1.60;;;23.40;64.70;;;;;;4993244;28;20049;-59
2023/06/23 04:55:34;;;;;;;2.30;1.30;;;23.40;64.70;;;;;;4977485;28;20406;-59
2023/06/23 04:58:03;;;;;;;1.95;1.40;;;23.40;64.70;;;;;;4991873;28;20053;-59
2023/06/23 05:00:28;;;;;;;2.35;1.30;;;23.40;64.80;;;;;;4993770;28;20042;-58
2023/06/23 05:02:55;;;;;;;2.88;1.50;;;23.50;64.80;;;;;;4992880;28;20097;-59
2023/06/23 05:05:23;;;;;;;2.17;1.25;;;23.40;64.70;;;;;;4992225;28;20088;-59
2023/06/23 05:07:50;;;;;;;5.88;1.60;;;23.40;64.70;;;;;;4993890;28;20054;-58
2023/06/23 05:10:17;;;;;;;3.13;1.73;;;23.40;64.80;;;;;;4993021;28;20057;-59
2023/06/23 05:12:42;;;;;;;2.30;1.40;;;23.40;64.80;;;;;;4980398;28;20106;-59
2023/06/23 05:15:08;;;;;;;2.83;1.50;;;23.40;64.80;;;;;;4975007;28;20514;-58
2023/06/23 05:17:35;;;;;;;2.72;1.40;;;23.40;64.70;;;;;;4973790;28;20043;-59
2023/06/23 05:20:01;;;;;;;2.45;1.38;;;23.40;64.70;;;;;;4971813;28;20046;-59
2023/06/23 05:22:26;;;;;;;3.35;1.55;;;23.40;64.80;;;;;;4973143;28;20093;-59
2023/06/23 05:24:58;;;;;;;2.05;1.30;;;23.40;64.80;;;;;;4973479;28;20074;-59
2023/06/23 05:27:24;;;;;;;2.90;1.50;;;23.40;64.70;;;;;;4973078;28;20050;-59
2023/06/23 05:29:51;;;;;;;2.75;1.48;;;23.40;64.70;;;;;;4973238;28;20035;-59
2023/06/23 05:32:17;;;;;;;2.95;1.40;;;23.40;64.80;;;;;;4960823;28;20042;-59
2023/06/23 05:34:43;;;;;;;2.03;1.45;;;23.40;64.80;;;;;;4989644;28;20147;-59
2023/06/23 05:37:09;;;;;;;2.25;1.50;;;23.40;64.70;;;;;;4988806;28;20566;-58
2023/06/23 05:39:34;;;;;;;2.10;1.38;;;23.40;64.70;;;;;;4984225;28;20129;-59
2023/06/23 05:42:00;;;;;;;2.53;1.50;;;23.40;64.80;;;;;;4972519;28;20046;-59
2023/06/23 05:44:26;;;;;;;3.30;1.50;;;23.40;64.80;;;;;;4973452;28;20057;-59
2023/06/23 05:46:53;;;;;;;2.67;1.45;;;23.40;64.80;;;;;;4972046;28;20038;-59
2023/06/23 05:49:20;;;;;;;2.42;1.50;;;23.40;64.80;;;;;;4973111;28;20117;-59
2023/06/23 05:51:50;;;;;;;2.08;1.38;;;23.40;64.80;;;;;;4973977;28;20482;-59
2023/06/23 05:54:15;;;;;;;2.08;1.40;;;23.40;64.80;;;;;;4976071;28;20046;-59
2023/06/23 05:56:44;;;;;;;1.95;1.13;;;23.40;64.80;;;;;;4992491;28;20386;-59
2023/06/23 05:59:20;;;;;;;3.08;1.67;;;23.40;64.80;;;;;;4992143;28;20482;-59
2023/06/23 06:01:46;;;;;;;4.35;1.67;;;23.40;64.80;;;;;;4991621;28;20085;-59
2023/06/23 06:04:16;;;;;;;2.78;1.30;;;23.40;64.80;;;;;;4975819;28;20069;-59
2023/06/23 06:06:41;;;;;;;2.90;1.83;;;23.40;64.80;;;;;;4993484;28;20046;-57
2023/06/23 06:09:09;;;;;;;3.60;1.60;;;23.40;64.90;;;;;;4991539;28;20053;-59
2023/06/23 06:11:35;;;;;;;3.30;1.58;;;23.40;64.90;;;;;;4992136;28;20512;-59
2023/06/23 06:14:01;;;;;;;6.63;3.00;;;23.40;64.90;;;;;;4972668;28;20046;-59
2023/06/23 06:16:26;;;;;;;4.05;2.10;;;23.40;64.70;;;;;;4972195;28;20477;-59
2023/06/23 06:18:52;;;;;;;5.25;3.00;;;23.40;64.80;;;;;;4972271;28;20105;-60
2023/06/23 06:21:17;;;;;;;7.38;3.15;;;23.40;65.00;;;;;;4956184;28;20051;-60
2023/06/23 06:23:43;;;;;;;6.47;2.50;;;23.40;65.00;;;;;;4981121;28;20117;-58
2023/06/23 06:26:09;;;;;;;5.72;2.70;;;23.40;65.50;;;;;;4991267;28;20046;-58
2023/06/23 06:28:34;;;;;;;7.85;3.35;;;23.40;64.80;;;;;;4989105;28;20042;-58
2023/06/23 06:31:01;;;;;;;7.45;3.85;;;23.40;64.70;;;;;;4991716;28;20053;-58
2023/06/23 06:33:27;;;;;;;8.73;3.25;;;23.40;64.60;;;;;;4991039;28;20046;-58
2023/06/23 06:35:53;;;;;;;8.30;4.32;;;23.40;64.60;;;;;;4990400;28;20054;-59
2023/06/23 06:38:19;;;;;;;10.60;4.15;;;23.40;64.50;;;;;;4991795;28;20093;-58
2023/06/23 06:40:46;;;;;;;8.00;3.88;;;23.30;64.40;;;;;;4993038;28;20042;-60
2023/06/23 06:43:12;;;;;;;8.88;4.18;;;23.40;64.40;;;;;;4989820;28;20511;-58
2023/06/23 06:45:37;;;;;;;6.82;3.92;;;23.30;64.40;;;;;;4991488;28;20078;-59
2023/06/23 06:48:04;;;;;;;6.65;3.95;;;23.30;64.40;;;;;;4982228;28;20039;-59
2023/06/23 06:50:29;;;;;;;6.85;3.35;;;23.30;64.40;;;;;;4955366;28;20121;-58
2023/06/23 06:52:55;;;;;;;5.97;3.13;;;23.30;64.40;;;;;;4964343;28;20085;-58
2023/06/23 06:55:21;;;;;;;7.72;3.80;;;23.20;64.30;;;;;;4973376;28;20046;-57
2023/06/23 06:57:47;;;;;;;6.97;3.45;;;23.20;64.20;;;;;;4989392;28;20045;-59
2023/06/23 07:00:17;;;;;;;9.38;4.30;;;23.30;64.30;;;;;;4992368;28;20165;-58
2023/06/23 07:02:44;;;;;;;8.45;3.83;;;23.20;64.30;;;;;;4986586;28;20046;-58
2023/06/23 07:05:09;;;;;;;5.68;3.70;;;23.20;64.30;;;;;;4989572;28;20038;-57
2023/06/23 07:07:35;;;;;;;7.13;3.80;;;23.30;64.40;;;;;;4990729;28;20096;-58
2023/06/23 07:10:01;;;;;;;9.57;3.88;;;23.20;64.40;;;;;;4992123;28;20113;-58
2023/06/23 07:12:27;;;;;;;9.18;3.90;;;23.20;64.40;;;;;;4991066;28;20082;-58
2023/06/23 07:14:52;;;;;;;7.65;3.85;;;23.30;64.60;;;;;;4992052;28;20065;-58
2023/06/23 07:17:18;;;;;;;6.75;4.00;;;23.30;64.70;;;;;;4992073;28;20049;-58
2023/06/23 07:19:43;;;;;;;7.30;3.47;;;23.30;64.80;;;;;;4980674;28;20490;-58
2023/06/23 07:22:09;;;;;;;7.53;3.83;;;23.30;64.80;;;;;;4972849;28;20042;-59
2023/06/23 07:24:35;;;;;;;7.45;3.85;;;23.30;64.80;;;;;;4972667;28;20130;-59
2023/06/23 07:27:00;;;;;;;7.70;4.03;;;23.30;64.80;;;;;;4970348;28;20057;-59
2023/06/23 07:29:26;;;;;;;8.27;3.60;;;23.30;64.70;;;;;;4979684;28;20034;-59
2023/06/23 07:31:51;;;;;;;7.72;3.95;;;23.40;64.80;;;;;;4991169;28;20046;-59
2023/06/23 07:34:17;;;;;;;9.38;3.58;;;23.40;64.80;;;;;;4990757;28;20085;-58
2023/06/23 07:36:43;;;;;;;6.93;3.42;;;23.40;64.90;;;;;;4991646;28;20474;-59
2023/06/23 07:39:10;;;;;;;6.70;3.40;;;23.40;64.90;;;;;;4985000;28;20067;-59
2023/06/23 07:41:36;;;;;;;6.75;3.53;;;23.40;64.90;;;;;;4992408;28;20540;-59
2023/06/23 07:44:02;;;;;;;7.35;3.45;;;23.50;65.00;;;;;;4977019;28;20505;-60
2023/06/23 07:46:29;;;;;;;8.30;3.75;;;23.50;64.90;;;;;;4971905;28;20039;-59
2023/06/23 07:48:55;;;;;;;5.60;3.03;;;23.50;64.90;;;;;;4972462;28;20050;-59
2023/06/23 07:51:21;;;;;;;6.75;3.70;;;23.50;64.90;;;;;;4972647;28;20390;-60
2023/06/23 07:53:46;;;;;;;17.95;3.80;;;23.50;64.90;;;;;;4972968;28;20081;-60
2023/06/23 07:56:12;;;;;;;7.80;3.92;;;23.50;64.80;;;;;;4976100;28;20565;-60
2023/06/23 07:58:38;;;;;;;7.78;4.00;;;23.50;64.60;;;;;;4976159;28;20077;-60
2023/06/23 08:01:05;;;;;;;6.75;3.47;;;23.50;64.40;;;;;;4974986;28;20517;-59
2023/06/23 08:03:31;;;;;;;5.65;3.70;;;23.50;64.40;;;;;;4976070;28;20043;-59
2023/06/23 08:05:56;;;;;;;7.55;3.55;;;23.50;64.40;;;;;;4984852;28;20076;-59
2023/06/23 08:08:22;;;;;;;5.35;3.38;;;23.40;64.30;;;;;;4977722;28;20090;-59
2023/06/23 08:10:48;;;;;;;7.88;3.70;;;23.40;64.40;;;;;;4982822;28;20080;-59
2023/06/23 08:13:13;;;;;;;5.95;3.25;;;23.40;64.40;;;;;;4988592;28;20100;-60
2023/06/23 08:15:40;;;;;;;6.97;3.65;;;23.40;64.30;;;;;;4984133;28;20064;-60
2023/06/23 08:18:06;;;;;;;10.02;4.63;;;23.40;64.30;;;;;;4992519;28;20051;-60
2023/06/23 08:20:32;;;;;;;5.32;3.30;;;23.40;64.20;;;;;;4993930;28;20042;-60
2023/06/23 08:22:57;;;;;;;6.15;3.47;;;23.40;64.30;;;;;;4992302;28;20107;-60
2023/06/23 08:25:23;;;;;;;9.13;4.00;;;23.40;64.30;;;;;;4994700;28;20035;-60
2023/06/23 08:27:48;;;;;;;5.55;3.28;;;23.40;64.30;;;;;;4993771;28;20126;-60
2023/06/23 08:30:15;;;;;;;7.20;3.45;;;23.40;64.10;;;;;;4992825;28;20108;-60
2023/06/23 08:32:40;;;;;;;7.10;3.72;;;23.40;64.20;;;;;;4990696;28;20487;-61
2023/06/23 08:35:07;;;;;;;6.93;3.70;;;23.40;64.20;;;;;;4974569;28;20046;-60
2023/06/23 08:37:32;;;;;;;5.07;3.13;;;23.40;64.10;;;;;;4974976;28;20077;-60
2023/06/23 08:39:58;;;;;;;9.32;3.67;;;23.40;64.10;;;;;;4985668;28;20125;-60
2023/06/23 08:42:29;;;;;;;4.93;2.92;;;23.40;63.90;;;;;;4994114;28;20030;-60
2023/06/23 08:44:55;;;;;;;7.43;3.50;;;23.40;64.00;;;;;;4993230;28;20090;-60
2023/06/23 08:47:21;;;;;;;6.32;3.35;;;23.40;64.00;;;;;;4993692;28;20073;-60
2023/06/23 08:49:46;;;;;;;6.60;3.50;;;23.40;64.00;;;;;;4992511;28;20086;-60
2023/06/23 08:52:12;;;;;;;7.05;3.33;;;23.40;64.00;;;;;;4993798;28;20042;-60
2023/06/23 08:54:37;;;;;;;6.28;3.45;;;23.40;63.90;;;;;;4993320;28;20557;-60
2023/06/23 08:57:04;;;;;;;5.47;3.40;;;23.40;63.80;;;;;;4992070;28;20053;-60
2023/06/23 08:59:30;;;;;;;5.78;3.13;;;23.40;63.80;;;;;;4994583;28;20584;-60
2023/06/23 09:01:55;;;;;;;13.32;3.88;;;23.40;63.70;;;;;;4993016;28;20050;-59
2023/06/23 09:04:21;;;;;;;11.70;3.25;;;23.40;63.70;;;;;;4993601;28;20043;-61
2023/06/23 09:06:47;;;;;;;8.23;3.20;;;23.50;63.90;;;;;;4993213;28;20142;-60
2023/06/23 09:09:12;;;;;;;6.40;3.55;;;23.40;63.70;;;;;;4992746;28;20077;-60
2023/06/23 09:11:38;;;;;;;6.72;3.15;;;23.50;63.60;;;;;;4992138;28;20520;-60
2023/06/23 09:14:03;;;;;;;5.10;3.20;;;23.50;63.40;;;;;;4976393;28;20096;-60
2023/06/23 09:16:29;;;;;;;5.90;2.90;;;23.50;63.30;;;;;;4994017;28;20128;-60
2023/06/23 09:18:55;;;;;;;7.70;3.47;;;23.50;63.20;;;;;;4991779;28;20125;-60
2023/06/23 09:21:20;;;;;;;6.72;3.38;;;23.50;63.10;;;;;;4993657;28;20398;-59
2023/06/23 09:24:02;;;;;;;8.52;3.95;;;23.50;63.00;;;;;;4976659;28;20042;-60
2023/06/23 09:26:28;;;;;;;7.00;4.07;;;23.50;62.80;;;;;;4991704;28;20046;-59
2023/06/23 09:29:01;;;;;;;6.50;3.50;;;23.50;62.70;;;;;;4990989;28;20039;-60
2023/06/23 09:31:27;;;;;;;7.75;3.50;;;23.50;62.60;;;;;;4976352;28;20050;-59
2023/06/23 09:33:53;;;;;;;6.32;3.15;;;23.50;62.20;;;;;;4993184;28;20043;-59
2023/06/23 09:36:18;;;;;;;8.40;3.63;;;23.60;61.80;;;;;;4993513;28;20054;-60
2023/06/23 09:38:44;;;;;;;7.05;3.67;;;23.60;61.60;;;;;;4992223;28;20406;-60
2023/06/23 09:41:11;;;;;;;9.13;3.53;;;23.70;61.60;;;;;;4992739;28;20050;-59
2023/06/23 09:43:43;;;;;;;6.68;3.55;;;23.70;61.60;;;;;;4987283;28;20085;-59
2023/06/23 09:46:13;;;;;;;8.02;3.13;;;23.70;61.20;;;;;;4976264;28;20557;-59
2023/06/23 09:48:40;;;;;;;5.50;3.10;;;23.70;60.90;;;;;;4974360;28;20057;-59
2023/06/23 09:51:05;;;;;;;6.82;3.30;;;23.70;60.80;;;;;;4992629;28;20046;-58
2023/06/23 09:53:36;;;;;;;8.85;3.50;;;23.80;61.00;;;;;;4991647;28;20390;-58
2023/06/23 09:56:03;;;;;;;6.15;3.72;;;23.80;61.00;;;;;;4993412;28;20034;-59
2023/06/23 09:58:38;;;;;;;6.47;3.35;;;23.80;60.80;;;;;;4992623;28;20113;-59
2023/06/23 10:01:08;;;;;;;9.18;3.50;;;23.70;60.50;;;;;;4991117;28;20053;-60
2023/06/23 10:03:47;;;;;;;5.90;3.22;;;23.70;60.40;;;;;;4991167;28;20038;-59
2023/06/23 10:06:26;;;;;;;8.57;3.78;;;23.70;60.30;;;;;;4990552;28;20056;-60
2023/06/23 10:08:54;;;;;;;7.18;3.50;;;23.70;60.40;;;;;;4992335;28;20444;-59
2023/06/23 10:11:20;;;;;;;7.00;3.73;;;23.70;60.40;;;;;;4993179;28;20077;-60
2023/06/23 10:13:46;;;;;;;7.20;3.60;;;23.70;60.30;;;;;;4990895;28;20328;-59
2023/06/23 10:16:12;;;;;;;6.25;3.67;;;23.70;60.20;;;;;;4992604;28;20085;-59
2023/06/23 10:18:38;;;;;;;5.75;3.47;;;23.70;60.00;;;;;;4991639;28;20078;-59
2023/06/23 10:21:03;;;;;;;5.53;3.40;;;23.70;59.90;;;;;;4991739;28;20474;-59
2023/06/23 10:23:29;;;;;;;6.45;3.55;;;23.70;59.80;;;;;;4992478;28;20164;-59
2023/06/23 10:25:55;;;;;;;4.93;3.38;;;23.70;59.60;;;;;;4974928;28;20136;-60
2023/06/23 10:28:20;;;;;;;6.10;3.67;;;23.70;59.40;;;;;;4974042;28;20054;-58
2023/06/23 10:30:46;;;;;;;7.03;3.72;;;23.70;59.10;;;;;;4990444;28;20026;-59
2023/06/23 10:33:16;;;;;;;6.65;3.40;;;23.70;59.10;;;;;;4992185;28;20130;-59
2023/06/23 10:35:42;;;;;;;4.72;3.30;;;23.70;59.00;;;;;;4990803;28;20046;-59
2023/06/23 10:38:08;;;;;;;5.72;2.92;;;23.70;58.90;;;;;;4985949;28;20109;-59
2023/06/23 10:40:38;;;;;;;5.13;3.00;;;23.70;58.70;;;;;;4982721;28;20478;-59
2023/06/23 10:43:03;;;;;;;5.40;3.80;;;23.70;58.50;;;;;;4991647;28;20046;-60
2023/06/23 10:45:29;;;;;;;4.93;3.15;;;23.70;58.40;;;;;;4979034;28;20441;-59
2023/06/23 10:47:54;;;;;;;4.32;3.05;;;23.70;58.40;;;;;;4972729;28;20096;-59
2023/06/23 10:50:20;;;;;;;6.15;3.22;;;23.70;58.40;;;;;;4991866;28;20035;-59
2023/06/23 10:52:46;;;;;;;5.75;3.10;;;23.70;58.20;;;;;;4985264;28;20046;-59
2023/06/23 10:55:33;;;;;;;5.95;3.35;;;23.70;58.10;;;;;;4973271;28;20368;-59
2023/06/23 10:58:17;;;;;;;5.55;3.38;;;23.70;57.60;;;;;;4972011;28;20043;-59
2023/06/23 11:00:55;;;;;;;4.65;3.15;;;23.70;57.50;;;;;;4973378;28;20121;-59
2023/06/23 11:03:30;;;;;;;6.50;3.00;;;23.70;57.30;;;;;;4971119;28;20062;-59
2023/06/23 11:05:57;;;;;;;4.30;2.90;;;23.70;57.20;;;;;;4971498;28;20050;-59
2023/06/23 11:08:34;;;;;;;4.80;3.25;;;23.70;57.40;;;;;;4973336;28;20478;-59
2023/06/23 11:11:29;;;;;;;4.90;3.10;;;23.70;57.30;;;;;;4972144;28;20055;-59
2023/06/23 11:13:56;;;;;;;6.53;3.17;;;23.70;57.30;;;;;;4978977;28;20042;-58
2023/06/23 11:16:38;;;;;;;13.60;3.97;;;23.70;57.30;;;;;;4992142;28;20092;-59
2023/06/23 11:19:03;;;;;;;9.43;3.50;;;23.70;57.30;;;;;;4983092;28;20042;-58
2023/06/23 11:21:33;;;;;;;7.10;3.10;;;23.70;57.50;;;;;;4972876;28;20418;-59
2023/06/23 11:24:16;;;;;;;7.32;2.92;;;23.80;57.60;;;;;;4980815;28;20038;-59
2023/06/23 11:26:49;;;;;;;6.75;3.30;;;23.80;57.70;;;;;;4983462;28;20490;-59
2023/06/23 11:29:17;;;;;;;7.57;3.53;;;23.80;57.80;;;;;;4987221;28;20589;-59
2023/06/23 11:32:01;;;;;;;9.60;3.17;;;23.80;58.10;;;;;;4993896;28;20050;-59
2023/06/23 11:34:26;;;;;;;9.80;3.70;;;23.80;58.30;;;;;;4995753;28;20089;-59
2023/06/23 11:36:52;;;;;;;9.75;3.35;;;23.80;58.30;;;;;;4995730;28;20066;-59
2023/06/23 11:39:18;;;;;;;7.30;3.33;;;23.80;58.50;;;;;;4995077;28;20109;-59
2023/06/23 11:41:43;;;;;;;9.18;3.30;;;23.80;58.60;;;;;;4996396;28;20042;-60
2023/06/23 11:44:10;;;;;;;7.35;3.97;;;23.90;58.80;;;;;;4995887;28;20042;-61
2023/06/23 11:46:36;;;;;;;8.18;3.20;;;23.90;58.80;;;;;;4994145;28;20050;-60
2023/06/23 11:49:11;;;;;;;8.05;3.38;;;23.90;58.90;;;;;;4994512;28;20053;-59
2023/06/23 11:51:37;;;;;;;8.15;3.20;;;23.90;59.00;;;;;;4995895;28;20042;-59
2023/06/23 11:54:02;;;;;;;5.35;3.38;;;23.90;59.00;;;;;;4994611;28;20042;-59
2023/06/23 11:56:28;;;;;;;7.15;3.70;;;23.90;59.10;;;;;;4994571;28;20066;-59
2023/06/23 11:58:56;;;;;;;7.05;3.58;;;23.90;59.20;;;;;;4994987;28;20050;-59
2023/06/23 12:01:22;;;;;;;7.20;3.38;;;23.90;59.30;;;;;;4994617;28;20081;-59
2023/06/23 12:03:48;;;;;;;8.90;3.83;;;23.90;59.30;;;;;;4995423;28;20478;-59
2023/06/23 12:06:17;;;;;;;7.40;3.08;;;24.00;59.40;;;;;;4994898;28;20046;-59
2023/06/23 12:08:43;;;;;;;7.38;3.10;;;23.90;59.50;;;;;;4995704;28;20121;-59
2023/06/23 12:11:08;;;;;;;6.57;3.70;;;24.00;59.60;;;;;;4995406;28;20046;-58
2023/06/23 12:13:38;;;;;;;6.57;3.03;;;24.00;59.60;;;;;;4986658;28;20098;-58
2023/06/23 12:16:05;;;;;;;6.13;3.38;;;24.00;59.70;;;;;;4975736;28;20486;-58
2023/06/23 12:18:32;;;;;;;5.18;2.97;;;24.00;59.70;;;;;;4976435;28;20050;-58
2023/06/23 12:20:59;;;;;;;6.50;3.25;;;24.00;59.80;;;;;;4975078;28;20050;-58
2023/06/23 12:23:25;;;;;;;6.43;3.03;;;24.00;59.90;;;;;;4975784;28;20051;-60
2023/06/23 12:25:53;;;;;;;4.03;2.80;;;24.00;60.00;;;;;;4974296;28;20041;-59
2023/06/23 12:28:19;;;;;;;7.57;3.53;;;24.00;60.00;;;;;;4990816;28;20088;-59
2023/06/23 12:30:48;;;;;;;5.03;3.00;;;24.00;60.70;;;;;;4992342;28;20085;-58
2023/06/23 12:33:16;;;;;;;5.97;3.20;;;24.00;60.10;;;;;;4992580;28;20066;-59
2023/06/23 12:35:57;;;;;;;8.13;2.92;;;24.00;60.20;;;;;;4991639;28;20057;-58
2023/06/23 12:38:23;;;;;;;8.57;3.00;;;24.00;60.30;;;;;;4992502;28;20125;-59
2023/06/23 12:40:49;;;;;;;4.63;2.75;;;24.00;60.30;;;;;;4993001;28;20038;-59
2023/06/23 12:43:15;;;;;;;6.57;2.85;;;24.00;60.30;;;;;;4993750;28;20046;-59
2023/06/23 12:45:40;;;;;;;6.95;3.78;;;24.00;60.30;;;;;;4994926;28;20040;-59
2023/06/23 12:48:10;;;;;;;5.53;2.65;;;24.10;60.40;;;;;;4980287;28;20860;-59
2023/06/23 12:50:38;;;;;;;5.15;3.38;;;24.10;60.30;;;;;;4994891;28;20042;-57